sensor_id;sensor_type;location;lat;lon;timestamp;P1;durP1;ratioP1;P2;durP2;ratioP2
673;SDS011;319;48.764;9.174;2022-09-01T00:02:11;1.10;;;1.10;;
673;SDS011;319;48.764;9.174;2022-09-01T00:04:40;1.10;;;1.10;;
673;SDS011;319;48.764;9.174;2022-09-01T00:07:08;0.90;;;0.90;;
673;SDS011;319;48.764;9.174;2022-09-01T00:09:36;1.00;;;1.00;;
673;SDS011;319;48.764;9.174;2022-09-01T00:12:05;1.00;;;1.00;;
673;SDS011;319;48.764;9.174;2022-09-01T00:14:36;1.00;;;1.00;;
673;SDS011;319;48.764;9.174;2022-09-01T00:17:06;1.10;;;1.10;;
673;SDS011;319;48.764;9.174;2022-09-01T00:19:35;1.10;;;1.10;;
673;SDS011;319;48.764;9.174;2022-09-01T00:22:04;1.10;;;1.10;;
673;SDS011;319;48.764;9.174;2022-09-01T00:24:31;1.10;;;1.10;;
673;SDS011;319;48.764;9.174;2022-09-01T00:26:58;1.00;;;1.00;;
673;SDS011;319;48.764;9.174;2022-09-01T00:29:25;1.10;;;1.10;;
673;SDS011;319;48.764;9.174;2022-09-01T00:31:54;0.80;;;0.80;;
673;SDS011;319;48.764;9.174;2022-09-01T00:34:21;1.10;;;1.10;;
673;SDS011;319;48.764;9.174;2022-09-01T00:36:48;1.00;;;1.00;;
673;SDS011;319;48.764;9.174;2022-09-01T00:39:15;1.20;;;1.20;;
673;SDS011;319;48.764;9.174;2022-09-01T00:41:43;1.30;;;1.30;;
673;SDS011;319;48.764;9.174;2022-09-01T00:44:12;1.20;;;1.20;;
673;SDS011;319;48.764;9.174;2022-09-01T00:46:41;1.17;;;1.17;;
673;SDS011;319;48.764;9.174;2022-09-01T00:49:13;1.20;;;1.20;;
673;SDS011;319;48.764;9.174;2022-09-01T00:51:43;1.20;;;1.20;;
673;SDS011;319;48.764;9.174;2022-09-01T00:54:14;1.10;;;1.10;;
673;SDS011;319;48.764;9.174;2022-09-01T00:56:43;1.30;;;1.30;;
673;SDS011;319;48.764;9.174;2022-09-01T00:59:11;1.30;;;1.30;;
673;SDS011;319;48.764;9.174;2022-09-01T01:01:41;1.40;;;1.40;;
673;SDS011;319;48.764;9.174;2022-09-01T01:04:08;1.10;;;1.10;;
673;SDS011;319;48.764;9.174;2022-09-01T01:06:40;1.00;;;1.00;;
673;SDS011;319;48.764;9.174;2022-09-01T01:09:13;1.00;;;1.00;;
673;SDS011;319;48.764;9.174;2022-09-01T01:11:41;0.90;;;0.90;;
673;SDS011;319;48.764;9.174;2022-09-01T01:14:11;1.00;;;1.00;;
673;SDS011;319;48.764;9.174;2022-09-01T01:16:42;1.00;;;1.00;;
673;SDS011;319;48.764;9.174;2022-09-01T01:19:11;1.00;;;1.00;;
673;SDS011;319;48.764;9.174;2022-09-01T01:22:02;1.00;;;1.00;;
673;SDS011;319;48.764;9.174;2022-09-01T01:24:50;1.00;;;1.00;;
673;SDS011;319;48.764;9.174;2022-09-01T01:27:17;1.00;;;1.00;;
673;SDS011;319;48.764;9.174;2022-09-01T01:29:46;1.00;;;1.00;;
673;SDS011;319;48.764;9.174;2022-09-01T01:32:14;0.90;;;0.90;;
673;SDS011;319;48.764;9.174;2022-09-01T01:34:42;0.90;;;0.90;;
673;SDS011;319;48.764;9.174;2022-09-01T01:37:11;1.00;;;1.00;;
673;SDS011;319;48.764;9.174;2022-09-01T01:39:38;1.00;;;1.00;;
673;SDS011;319;48.764;9.174;2022-09-01T01:42:08;1.00;;;1.00;;
673;SDS011;319;48.764;9.174;2022-09-01T01:44:36;0.97;;;0.97;;
673;SDS011;319;48.764;9.174;2022-09-01T01:47:04;1.10;;;1.10;;
673;SDS011;319;48.764;9.174;2022-09-01T01:49:37;1.20;;;1.20;;
673;SDS011;319;48.764;9.174;2022-09-01T01:52:08;1.50;;;1.50;;
673;SDS011;319;48.764;9.174;2022-09-01T01:54:37;1.70;;;1.70;;
673;SDS011;319;48.764;9.174;2022-09-01T01:57:05;2.10;;;2.10;;
673;SDS011;319;48.764;9.174;2022-09-01T01:59:34;2.13;;;2.13;;
673;SDS011;319;48.764;9.174;2022-09-01T02:02:02;2.10;;;2.10;;
673;SDS011;319;48.764;9.174;2022-09-01T02:04:33;1.70;;;1.70;;
673;SDS011;319;48.764;9.174;2022-09-01T02:07:01;1.70;;;1.70;;
673;SDS011;319;48.764;9.174;2022-09-01T02:09:28;2.00;;;2.00;;
673;SDS011;319;48.764;9.174;2022-09-01T02:11:54;1.80;;;1.80;;
673;SDS011;319;48.764;9.174;2022-09-01T02:14:22;1.40;;;1.40;;
673;SDS011;319;48.764;9.174;2022-09-01T02:16:51;1.20;;;1.20;;
673;SDS011;319;48.764;9.174;2022-09-01T02:19:19;1.60;;;1.60;;
673;SDS011;319;48.764;9.174;2022-09-01T02:21:46;1.77;;;1.77;;
673;SDS011;319;48.764;9.174;2022-09-01T02:24:18;4.70;;;4.60;;
673;SDS011;319;48.764;9.174;2022-09-01T02:26:45;4.60;;;4.50;;
673;SDS011;319;48.764;9.174;2022-09-01T02:29:18;4.60;;;4.50;;
673;SDS011;319;48.764;9.174;2022-09-01T02:31:47;5.10;;;5.00;;
673;SDS011;319;48.764;9.174;2022-09-01T02:34:17;4.83;;;4.73;;
673;SDS011;319;48.764;9.174;2022-09-01T02:36:47;5.10;;;5.00;;
673;SDS011;319;48.764;9.174;2022-09-01T02:39:15;4.90;;;4.80;;
673;SDS011;319;48.764;9.174;2022-09-01T02:41:43;4.50;;;4.40;;
673;SDS011;319;48.764;9.174;2022-09-01T02:44:11;4.30;;;4.20;;
673;SDS011;319;48.764;9.174;2022-09-01T02:46:39;3.90;;;3.80;;
673;SDS011;319;48.764;9.174;2022-09-01T02:49:07;4.10;;;4.00;;
673;SDS011;319;48.764;9.174;2022-09-01T02:51:40;4.80;;;4.70;;
673;SDS011;319;48.764;9.174;2022-09-01T02:54:08;3.00;;;2.90;;
673;SDS011;319;48.764;9.174;2022-09-01T02:56:38;2.30;;;2.30;;
673;SDS011;319;48.764;9.174;2022-09-01T02:59:04;2.30;;;2.30;;
673;SDS011;319;48.764;9.174;2022-09-01T03:01:37;2.93;;;2.83;;
673;SDS011;319;48.764;9.174;2022-09-01T03:04:04;2.30;;;2.30;;
673;SDS011;319;48.764;9.174;2022-09-01T03:06:34;3.20;;;3.10;;
673;SDS011;319;48.764;9.174;2022-09-01T03:09:04;3.30;;;3.20;;
673;SDS011;319;48.764;9.174;2022-09-01T03:11:34;3.00;;;2.90;;
673;SDS011;319;48.764;9.174;2022-09-01T03:14:02;4.00;;;3.90;;
673;SDS011;319;48.764;9.174;2022-09-01T03:16:30;5.67;;;5.57;;
673;SDS011;319;48.764;9.174;2022-09-01T03:18:57;6.47;;;6.30;;
673;SDS011;319;48.764;9.174;2022-09-01T03:21:24;6.67;;;6.47;;
673;SDS011;319;48.764;9.174;2022-09-01T03:23:52;4.93;;;4.83;;
673;SDS011;319;48.764;9.174;2022-09-01T03:26:20;6.50;;;6.30;;
673;SDS011;319;48.764;9.174;2022-09-01T03:28:47;7.30;;;7.10;;
673;SDS011;319;48.764;9.174;2022-09-01T03:31:15;6.87;;;6.67;;
673;SDS011;319;48.764;9.174;2022-09-01T03:33:42;6.33;;;6.20;;
673;SDS011;319;48.764;9.174;2022-09-01T03:36:10;5.70;;;5.60;;
673;SDS011;319;48.764;9.174;2022-09-01T03:38:43;6.70;;;6.50;;
673;SDS011;319;48.764;9.174;2022-09-01T03:41:13;6.03;;;5.93;;
673;SDS011;319;48.764;9.174;2022-09-01T03:43:43;5.60;;;5.50;;
673;SDS011;319;48.764;9.174;2022-09-01T03:46:11;5.30;;;5.20;;
673;SDS011;319;48.764;9.174;2022-09-01T03:48:44;5.60;;;5.50;;
673;SDS011;319;48.764;9.174;2022-09-01T03:51:12;5.83;;;5.73;;
673;SDS011;319;48.764;9.174;2022-09-01T03:53:39;3.03;;;2.93;;
673;SDS011;319;48.764;9.174;2022-09-01T03:56:06;1.50;;;1.50;;
673;SDS011;319;48.764;9.174;2022-09-01T03:58:33;1.50;;;1.50;;
673;SDS011;319;48.764;9.174;2022-09-01T04:01:01;1.43;;;1.43;;
673;SDS011;319;48.764;9.174;2022-09-01T04:03:29;1.50;;;1.50;;
673;SDS011;319;48.764;9.174;2022-09-01T04:05:58;1.40;;;1.40;;
673;SDS011;319;48.764;9.174;2022-09-01T04:08:26;1.43;;;1.43;;
673;SDS011;319;48.764;9.174;2022-09-01T04:10:56;7.20;;;7.00;;
673;SDS011;319;48.764;9.174;2022-09-01T04:13:25;7.40;;;7.20;;
673;SDS011;319;48.764;9.174;2022-09-01T04:15:54;7.60;;;7.40;;
673;SDS011;319;48.764;9.174;2022-09-01T04:18:23;7.90;;;7.70;;
673;SDS011;319;48.764;9.174;2022-09-01T04:20:50;6.80;;;6.60;;
673;SDS011;319;48.764;9.174;2022-09-01T04:23:21;4.00;;;3.90;;
673;SDS011;319;48.764;9.174;2022-09-01T04:25:51;6.30;;;6.20;;
673;SDS011;319;48.764;9.174;2022-09-01T04:28:21;4.87;;;4.77;;
673;SDS011;319;48.764;9.174;2022-09-01T04:30:50;5.83;;;5.73;;
673;SDS011;319;48.764;9.174;2022-09-01T04:33:19;6.00;;;5.90;;
673;SDS011;319;48.764;9.174;2022-09-01T04:35:48;5.33;;;5.23;;
673;SDS011;319;48.764;9.174;2022-09-01T04:38:20;5.80;;;5.70;;
673;SDS011;319;48.764;9.174;2022-09-01T04:40:49;6.80;;;6.60;;
673;SDS011;319;48.764;9.174;2022-09-01T04:43:16;5.10;;;5.00;;
673;SDS011;319;48.764;9.174;2022-09-01T04:45:44;5.70;;;5.60;;
673;SDS011;319;48.764;9.174;2022-09-01T04:48:14;5.10;;;5.00;;
673;SDS011;319;48.764;9.174;2022-09-01T04:50:41;4.00;;;3.90;;
673;SDS011;319;48.764;9.174;2022-09-01T04:53:10;3.00;;;2.90;;
673;SDS011;319;48.764;9.174;2022-09-01T04:55:37;4.00;;;3.90;;
673;SDS011;319;48.764;9.174;2022-09-01T04:58:07;3.50;;;3.40;;
673;SDS011;319;48.764;9.174;2022-09-01T05:00:37;4.97;;;4.87;;
673;SDS011;319;48.764;9.174;2022-09-01T05:03:05;3.20;;;3.10;;
673;SDS011;319;48.764;9.174;2022-09-01T05:05:35;4.53;;;4.43;;
673;SDS011;319;48.764;9.174;2022-09-01T05:08:06;4.60;;;4.50;;
673;SDS011;319;48.764;9.174;2022-09-01T05:10:37;4.47;;;4.37;;
673;SDS011;319;48.764;9.174;2022-09-01T05:13:06;3.33;;;3.23;;
673;SDS011;319;48.764;9.174;2022-09-01T05:15:34;3.80;;;3.70;;
673;SDS011;319;48.764;9.174;2022-09-01T05:18:02;4.40;;;4.30;;
673;SDS011;319;48.764;9.174;2022-09-01T05:20:35;4.30;;;4.20;;
673;SDS011;319;48.764;9.174;2022-09-01T05:23:03;3.83;;;3.73;;
673;SDS011;319;48.764;9.174;2022-09-01T05:25:37;4.53;;;4.43;;
673;SDS011;319;48.764;9.174;2022-09-01T05:28:06;4.17;;;4.07;;
673;SDS011;319;48.764;9.174;2022-09-01T05:30:36;5.00;;;4.90;;
673;SDS011;319;48.764;9.174;2022-09-01T05:33:04;5.07;;;4.97;;
673;SDS011;319;48.764;9.174;2022-09-01T05:35:37;4.30;;;4.20;;
673;SDS011;319;48.764;9.174;2022-09-01T05:38:09;3.60;;;3.50;;
673;SDS011;319;48.764;9.174;2022-09-01T05:40:41;4.63;;;4.53;;
673;SDS011;319;48.764;9.174;2022-09-01T05:43:08;3.70;;;3.60;;
673;SDS011;319;48.764;9.174;2022-09-01T05:45:38;3.90;;;3.80;;
673;SDS011;319;48.764;9.174;2022-09-01T05:48:08;3.20;;;3.10;;
673;SDS011;319;48.764;9.174;2022-09-01T05:50:38;4.10;;;4.00;;
673;SDS011;319;48.764;9.174;2022-09-01T05:53:06;3.83;;;3.73;;
673;SDS011;319;48.764;9.174;2022-09-01T05:55:41;4.30;;;4.20;;
673;SDS011;319;48.764;9.174;2022-09-01T05:58:09;3.67;;;3.57;;
673;SDS011;319;48.764;9.174;2022-09-01T06:00:37;2.50;;;2.50;;
673;SDS011;319;48.764;9.174;2022-09-01T06:03:06;2.97;;;2.87;;
673;SDS011;319;48.764;9.174;2022-09-01T06:05:34;2.40;;;2.40;;
673;SDS011;319;48.764;9.174;2022-09-01T06:08:01;2.10;;;2.10;;
673;SDS011;319;48.764;9.174;2022-09-01T06:10:29;1.50;;;1.50;;
673;SDS011;319;48.764;9.174;2022-09-01T06:12:59;4.30;;;4.20;;
673;SDS011;319;48.764;9.174;2022-09-01T06:15:26;5.40;;;5.30;;
673;SDS011;319;48.764;9.174;2022-09-01T06:17:54;5.10;;;5.00;;
673;SDS011;319;48.764;9.174;2022-09-01T06:20:21;3.50;;;3.40;;
673;SDS011;319;48.764;9.174;2022-09-01T06:22:48;5.73;;;5.63;;
673;SDS011;319;48.764;9.174;2022-09-01T06:25:16;7.40;;;7.20;;
673;SDS011;319;48.764;9.174;2022-09-01T06:27:45;8.60;;;8.40;;
673;SDS011;319;48.764;9.174;2022-09-01T06:30:14;8.83;;;8.63;;
673;SDS011;319;48.764;9.174;2022-09-01T06:32:44;5.00;;;4.90;;
673;SDS011;319;48.764;9.174;2022-09-01T06:35:13;6.00;;;5.90;;
673;SDS011;319;48.764;9.174;2022-09-01T06:37:43;5.20;;;5.10;;
673;SDS011;319;48.764;9.174;2022-09-01T06:40:11;5.73;;;5.63;;
673;SDS011;319;48.764;9.174;2022-09-01T06:42:42;5.60;;;5.50;;
673;SDS011;319;48.764;9.174;2022-09-01T06:45:11;8.20;;;8.00;;
673;SDS011;319;48.764;9.174;2022-09-01T06:47:43;0.80;;;0.80;;
673;SDS011;319;48.764;9.174;2022-09-01T06:50:11;6.13;;;6.03;;
673;SDS011;319;48.764;9.174;2022-09-01T06:52:39;7.80;;;7.60;;
673;SDS011;319;48.764;9.174;2022-09-01T06:55:07;9.50;;;9.30;;
673;SDS011;319;48.764;9.174;2022-09-01T06:57:35;9.37;;;9.17;;
673;SDS011;319;48.764;9.174;2022-09-01T07:00:03;9.60;;;9.40;;
673;SDS011;319;48.764;9.174;2022-09-01T07:02:43;10.30;;;10.00;;
673;SDS011;319;48.764;9.174;2022-09-01T07:05:10;10.80;;;10.50;;
673;SDS011;319;48.764;9.174;2022-09-01T07:07:41;9.73;;;9.43;;
673;SDS011;319;48.764;9.174;2022-09-01T07:10:15;8.77;;;8.57;;
673;SDS011;319;48.764;9.174;2022-09-01T07:12:46;10.50;;;10.20;;
673;SDS011;319;48.764;9.174;2022-09-01T07:15:14;10.73;;;10.43;;
673;SDS011;319;48.764;9.174;2022-09-01T07:17:44;8.83;;;8.63;;
673;SDS011;319;48.764;9.174;2022-09-01T07:20:14;9.80;;;9.60;;
673;SDS011;319;48.764;9.174;2022-09-01T07:22:41;6.57;;;6.37;;
673;SDS011;319;48.764;9.174;2022-09-01T07:25:08;0.90;;;0.90;;
673;SDS011;319;48.764;9.174;2022-09-01T07:27:36;0.90;;;0.90;;
673;SDS011;319;48.764;9.174;2022-09-01T07:30:04;0.90;;;0.90;;
673;SDS011;319;48.764;9.174;2022-09-01T07:32:33;0.90;;;0.90;;
673;SDS011;319;48.764;9.174;2022-09-01T07:35:03;0.80;;;0.80;;
673;SDS011;319;48.764;9.174;2022-09-01T07:37:33;0.80;;;0.80;;
673;SDS011;319;48.764;9.174;2022-09-01T07:40:02;0.90;;;0.90;;
673;SDS011;319;48.764;9.174;2022-09-01T07:42:31;0.90;;;0.90;;
673;SDS011;319;48.764;9.174;2022-09-01T07:44:58;0.90;;;0.90;;
673;SDS011;319;48.764;9.174;2022-09-01T07:47:25;0.90;;;0.90;;
673;SDS011;319;48.764;9.174;2022-09-01T07:49:53;1.10;;;1.10;;
673;SDS011;319;48.764;9.174;2022-09-01T07:52:22;0.90;;;0.90;;
673;SDS011;319;48.764;9.174;2022-09-01T07:54:49;0.90;;;0.90;;
673;SDS011;319;48.764;9.174;2022-09-01T07:57:17;1.00;;;1.00;;
673;SDS011;319;48.764;9.174;2022-09-01T07:59:44;1.10;;;1.10;;
673;SDS011;319;48.764;9.174;2022-09-01T08:02:10;0.90;;;0.90;;
673;SDS011;319;48.764;9.174;2022-09-01T08:04:37;0.90;;;0.90;;
673;SDS011;319;48.764;9.174;2022-09-01T08:07:04;0.87;;;0.87;;
673;SDS011;319;48.764;9.174;2022-09-01T08:09:33;0.90;;;0.90;;
673;SDS011;319;48.764;9.174;2022-09-01T08:12:03;0.90;;;0.90;;
673;SDS011;319;48.764;9.174;2022-09-01T08:14:30;0.90;;;0.90;;
673;SDS011;319;48.764;9.174;2022-09-01T08:16:57;0.97;;;0.97;;
673;SDS011;319;48.764;9.174;2022-09-01T08:19:24;1.00;;;1.00;;
673;SDS011;319;48.764;9.174;2022-09-01T08:21:51;1.00;;;1.00;;
673;SDS011;319;48.764;9.174;2022-09-01T08:24:18;1.00;;;1.00;;
673;SDS011;319;48.764;9.174;2022-09-01T08:26:47;1.00;;;1.00;;
673;SDS011;319;48.764;9.174;2022-09-01T08:29:14;1.10;;;1.10;;
673;SDS011;319;48.764;9.174;2022-09-01T08:31:41;1.10;;;1.10;;
673;SDS011;319;48.764;9.174;2022-09-01T08:34:07;1.20;;;1.20;;
673;SDS011;319;48.764;9.174;2022-09-01T08:36:36;1.00;;;1.00;;
673;SDS011;319;48.764;9.174;2022-09-01T08:39:03;1.10;;;1.10;;
673;SDS011;319;48.764;9.174;2022-09-01T08:41:34;1.10;;;1.10;;
673;SDS011;319;48.764;9.174;2022-09-01T08:44:11;0.93;;;0.93;;
673;SDS011;319;48.764;9.174;2022-09-01T08:46:43;1.00;;;1.00;;
673;SDS011;319;48.764;9.174;2022-09-01T08:49:12;0.90;;;0.90;;
673;SDS011;319;48.764;9.174;2022-09-01T08:51:45;1.00;;;1.00;;
673;SDS011;319;48.764;9.174;2022-09-01T08:54:17;1.00;;;1.00;;
673;SDS011;319;48.764;9.174;2022-09-01T08:56:49;1.00;;;1.00;;
673;SDS011;319;48.764;9.174;2022-09-01T08:59:20;1.00;;;1.00;;
673;SDS011;319;48.764;9.174;2022-09-01T09:01:50;1.00;;;1.00;;
673;SDS011;319;48.764;9.174;2022-09-01T09:04:29;0.93;;;0.93;;
673;SDS011;319;48.764;9.174;2022-09-01T09:07:05;0.80;;;0.80;;
673;SDS011;319;48.764;9.174;2022-09-01T09:09:36;0.90;;;0.90;;
673;SDS011;319;48.764;9.174;2022-09-01T09:12:20;1.00;;;1.00;;
673;SDS011;319;48.764;9.174;2022-09-01T09:15:01;1.00;;;1.00;;
673;SDS011;319;48.764;9.174;2022-09-01T09:17:38;1.00;;;1.00;;
673;SDS011;319;48.764;9.174;2022-09-01T09:20:09;1.10;;;1.10;;
673;SDS011;319;48.764;9.174;2022-09-01T09:22:36;1.00;;;1.00;;
673;SDS011;319;48.764;9.174;2022-09-01T09:25:05;1.00;;;1.00;;
673;SDS011;319;48.764;9.174;2022-09-01T09:27:35;1.00;;;1.00;;
673;SDS011;319;48.764;9.174;2022-09-01T09:30:05;0.90;;;0.90;;
673;SDS011;319;48.764;9.174;2022-09-01T09:32:47;1.00;;;1.00;;
673;SDS011;319;48.764;9.174;2022-09-01T09:35:17;1.00;;;1.00;;
673;SDS011;319;48.764;9.174;2022-09-01T09:37:47;0.90;;;0.90;;
673;SDS011;319;48.764;9.174;2022-09-01T09:40:15;1.00;;;1.00;;
673;SDS011;319;48.764;9.174;2022-09-01T09:42:57;0.90;;;0.90;;
673;SDS011;319;48.764;9.174;2022-09-01T09:45:32;0.90;;;0.90;;
673;SDS011;319;48.764;9.174;2022-09-01T09:48:03;0.90;;;0.90;;
673;SDS011;319;48.764;9.174;2022-09-01T09:50:33;0.90;;;0.90;;
673;SDS011;319;48.764;9.174;2022-09-01T09:53:10;0.90;;;0.90;;
673;SDS011;319;48.764;9.174;2022-09-01T09:55:51;1.00;;;1.00;;
673;SDS011;319;48.764;9.174;2022-09-01T09:58:33;2.10;;;2.10;;
673;SDS011;319;48.764;9.174;2022-09-01T10:01:05;1.10;;;1.10;;
673;SDS011;319;48.764;9.174;2022-09-01T10:03:41;0.80;;;0.80;;
673;SDS011;319;48.764;9.174;2022-09-01T10:06:10;0.80;;;0.80;;
673;SDS011;319;48.764;9.174;2022-09-01T10:08:41;0.90;;;0.90;;
673;SDS011;319;48.764;9.174;2022-09-01T10:11:23;0.90;;;0.90;;
673;SDS011;319;48.764;9.174;2022-09-01T10:13:52;0.80;;;0.80;;
673;SDS011;319;48.764;9.174;2022-09-01T10:16:23;0.80;;;0.80;;
673;SDS011;319;48.764;9.174;2022-09-01T10:18:54;0.80;;;0.80;;
673;SDS011;319;48.764;9.174;2022-09-01T10:21:25;0.80;;;0.80;;
673;SDS011;319;48.764;9.174;2022-09-01T10:23:57;0.90;;;0.90;;
673;SDS011;319;48.764;9.174;2022-09-01T10:26:25;0.90;;;0.90;;
673;SDS011;319;48.764;9.174;2022-09-01T10:28:56;0.80;;;0.80;;
673;SDS011;319;48.764;9.174;2022-09-01T10:31:28;0.80;;;0.80;;
673;SDS011;319;48.764;9.174;2022-09-01T10:33:55;0.90;;;0.90;;
673;SDS011;319;48.764;9.174;2022-09-01T10:36:23;0.80;;;0.80;;
673;SDS011;319;48.764;9.174;2022-09-01T10:38:50;0.80;;;0.80;;
673;SDS011;319;48.764;9.174;2022-09-01T10:44:11;0.80;;;0.80;;
673;SDS011;319;48.764;9.174;2022-09-01T10:46:46;0.80;;;0.80;;
673;SDS011;319;48.764;9.174;2022-09-01T10:55:21;0.87;;;0.87;;
673;SDS011;319;48.764;9.174;2022-09-01T10:57:53;0.90;;;0.90;;
673;SDS011;319;48.764;9.174;2022-09-01T11:09:32;0.80;;;0.80;;
673;SDS011;319;48.764;9.174;2022-09-01T11:18:09;0.80;;;0.80;;
673;SDS011;319;48.764;9.174;2022-09-01T11:20:39;0.80;;;0.80;;
673;SDS011;319;48.764;9.174;2022-09-01T11:23:09;0.90;;;0.90;;
673;SDS011;319;48.764;9.174;2022-09-01T11:25:47;0.90;;;0.90;;
673;SDS011;319;48.764;9.174;2022-09-01T11:31:24;0.90;;;0.90;;
673;SDS011;319;48.764;9.174;2022-09-01T11:34:01;0.80;;;0.80;;
673;SDS011;319;48.764;9.174;2022-09-01T11:36:45;0.80;;;0.80;;
673;SDS011;319;48.764;9.174;2022-09-01T11:39:23;0.90;;;0.90;;
673;SDS011;319;48.764;9.174;2022-09-01T11:42:00;0.90;;;0.90;;
673;SDS011;319;48.764;9.174;2022-09-01T11:44:33;0.80;;;0.80;;
673;SDS011;319;48.764;9.174;2022-09-01T11:47:05;0.80;;;0.80;;
673;SDS011;319;48.764;9.174;2022-09-01T11:49:36;0.90;;;0.90;;
673;SDS011;319;48.764;9.174;2022-09-01T11:52:05;0.90;;;0.90;;
673;SDS011;319;48.764;9.174;2022-09-01T11:54:36;0.90;;;0.90;;
673;SDS011;319;48.764;9.174;2022-09-01T11:57:20;0.90;;;0.90;;
673;SDS011;319;48.764;9.174;2022-09-01T11:59:52;0.90;;;0.90;;
673;SDS011;319;48.764;9.174;2022-09-01T12:02:20;0.80;;;0.80;;
673;SDS011;319;48.764;9.174;2022-09-01T12:04:49;0.70;;;0.70;;
673;SDS011;319;48.764;9.174;2022-09-01T12:07:36;0.80;;;0.80;;
673;SDS011;319;48.764;9.174;2022-09-01T12:10:16;0.80;;;0.80;;
673;SDS011;319;48.764;9.174;2022-09-01T12:12:47;0.80;;;0.80;;
673;SDS011;319;48.764;9.174;2022-09-01T12:15:18;0.80;;;0.80;;
673;SDS011;319;48.764;9.174;2022-09-01T12:17:46;0.80;;;0.80;;
673;SDS011;319;48.764;9.174;2022-09-01T12:20:24;0.80;;;0.80;;
673;SDS011;319;48.764;9.174;2022-09-01T12:22:53;0.80;;;0.80;;
673;SDS011;319;48.764;9.174;2022-09-01T12:25:21;0.90;;;0.90;;
673;SDS011;319;48.764;9.174;2022-09-01T12:27:51;0.90;;;0.90;;
673;SDS011;319;48.764;9.174;2022-09-01T12:30:19;0.90;;;0.90;;
673;SDS011;319;48.764;9.174;2022-09-01T12:32:47;1.10;;;1.10;;
673;SDS011;319;48.764;9.174;2022-09-01T12:35:15;0.90;;;0.90;;
673;SDS011;319;48.764;9.174;2022-09-01T12:37:46;0.80;;;0.80;;
673;SDS011;319;48.764;9.174;2022-09-01T12:40:24;0.80;;;0.80;;
673;SDS011;319;48.764;9.174;2022-09-01T12:42:57;0.90;;;0.90;;
673;SDS011;319;48.764;9.174;2022-09-01T12:45:37;0.80;;;0.80;;
673;SDS011;319;48.764;9.174;2022-09-01T12:48:05;0.80;;;0.80;;
673;SDS011;319;48.764;9.174;2022-09-01T12:50:48;0.80;;;0.80;;
673;SDS011;319;48.764;9.174;2022-09-01T12:53:20;0.90;;;0.90;;
673;SDS011;319;48.764;9.174;2022-09-01T12:55:56;0.80;;;0.80;;
673;SDS011;319;48.764;9.174;2022-09-01T12:58:31;0.90;;;0.90;;
673;SDS011;319;48.764;9.174;2022-09-01T13:01:00;0.90;;;0.90;;
673;SDS011;319;48.764;9.174;2022-09-01T13:03:30;0.90;;;0.90;;
673;SDS011;319;48.764;9.174;2022-09-01T13:05:58;0.87;;;0.87;;
673;SDS011;319;48.764;9.174;2022-09-01T13:08:27;0.90;;;0.90;;
673;SDS011;319;48.764;9.174;2022-09-01T13:10:56;0.90;;;0.90;;
673;SDS011;319;48.764;9.174;2022-09-01T13:13:24;0.90;;;0.90;;
673;SDS011;319;48.764;9.174;2022-09-01T13:15:54;0.80;;;0.80;;
673;SDS011;319;48.764;9.174;2022-09-01T13:18:25;0.80;;;0.80;;
673;SDS011;319;48.764;9.174;2022-09-01T13:20:54;0.90;;;0.90;;
673;SDS011;319;48.764;9.174;2022-09-01T13:23:21;0.90;;;0.90;;
673;SDS011;319;48.764;9.174;2022-09-01T13:25:49;0.90;;;0.90;;
673;SDS011;319;48.764;9.174;2022-09-01T13:28:16;0.90;;;0.90;;
673;SDS011;319;48.764;9.174;2022-09-01T13:30:49;0.90;;;0.90;;
673;SDS011;319;48.764;9.174;2022-09-01T13:33:22;0.90;;;0.90;;
673;SDS011;319;48.764;9.174;2022-09-01T13:35:50;0.80;;;0.80;;
673;SDS011;319;48.764;9.174;2022-09-01T13:38:17;0.87;;;0.87;;
673;SDS011;319;48.764;9.174;2022-09-01T13:40:46;0.80;;;0.80;;
673;SDS011;319;48.764;9.174;2022-09-01T13:43:14;0.80;;;0.80;;
673;SDS011;319;48.764;9.174;2022-09-01T13:45:43;0.80;;;0.80;;
673;SDS011;319;48.764;9.174;2022-09-01T13:48:12;0.87;;;0.87;;
673;SDS011;319;48.764;9.174;2022-09-01T13:50:40;0.90;;;0.90;;
673;SDS011;319;48.764;9.174;2022-09-01T13:53:07;0.90;;;0.90;;
673;SDS011;319;48.764;9.174;2022-09-01T13:55:37;0.90;;;0.90;;
673;SDS011;319;48.764;9.174;2022-09-01T13:58:06;0.80;;;0.80;;
673;SDS011;319;48.764;9.174;2022-09-01T14:00:34;0.80;;;0.80;;
673;SDS011;319;48.764;9.174;2022-09-01T14:03:04;0.90;;;0.90;;
673;SDS011;319;48.764;9.174;2022-09-01T14:05:34;0.80;;;0.80;;
673;SDS011;319;48.764;9.174;2022-09-01T14:08:03;0.80;;;0.80;;
673;SDS011;319;48.764;9.174;2022-09-01T14:10:31;0.80;;;0.80;;
673;SDS011;319;48.764;9.174;2022-09-01T14:12:59;0.80;;;0.80;;
673;SDS011;319;48.764;9.174;2022-09-01T14:15:26;0.80;;;0.80;;
673;SDS011;319;48.764;9.174;2022-09-01T14:17:53;0.80;;;0.80;;
673;SDS011;319;48.764;9.174;2022-09-01T14:20:22;0.80;;;0.80;;
673;SDS011;319;48.764;9.174;2022-09-01T14:22:52;0.80;;;0.80;;
673;SDS011;319;48.764;9.174;2022-09-01T14:25:20;0.80;;;0.80;;
673;SDS011;319;48.764;9.174;2022-09-01T14:27:47;0.80;;;0.80;;
673;SDS011;319;48.764;9.174;2022-09-01T14:30:15;0.80;;;0.80;;
673;SDS011;319;48.764;9.174;2022-09-01T14:32:44;0.80;;;0.80;;
673;SDS011;319;48.764;9.174;2022-09-01T14:35:11;0.90;;;0.90;;
673;SDS011;319;48.764;9.174;2022-09-01T14:37:39;0.80;;;0.80;;
673;SDS011;319;48.764;9.174;2022-09-01T14:40:09;0.90;;;0.90;;
673;SDS011;319;48.764;9.174;2022-09-01T14:42:39;0.87;;;0.87;;
673;SDS011;319;48.764;9.174;2022-09-01T14:45:08;0.90;;;0.90;;
673;SDS011;319;48.764;9.174;2022-09-01T14:47:36;0.83;;;0.83;;
673;SDS011;319;48.764;9.174;2022-09-01T14:50:03;0.90;;;0.90;;
673;SDS011;319;48.764;9.174;2022-09-01T14:52:31;0.90;;;0.90;;
673;SDS011;319;48.764;9.174;2022-09-01T14:54:58;0.80;;;0.80;;
673;SDS011;319;48.764;9.174;2022-09-01T14:57:26;0.90;;;0.90;;
673;SDS011;319;48.764;9.174;2022-09-01T14:59:53;0.80;;;0.80;;
673;SDS011;319;48.764;9.174;2022-09-01T15:02:20;0.80;;;0.80;;
673;SDS011;319;48.764;9.174;2022-09-01T15:04:49;0.80;;;0.80;;
673;SDS011;319;48.764;9.174;2022-09-01T15:07:16;0.80;;;0.80;;
673;SDS011;319;48.764;9.174;2022-09-01T15:09:43;0.87;;;0.87;;
673;SDS011;319;48.764;9.174;2022-09-01T15:12:10;0.90;;;0.90;;
673;SDS011;319;48.764;9.174;2022-09-01T15:14:38;0.80;;;0.80;;
673;SDS011;319;48.764;9.174;2022-09-01T15:17:05;0.90;;;0.90;;
673;SDS011;319;48.764;9.174;2022-09-01T15:19:33;0.80;;;0.80;;
673;SDS011;319;48.764;9.174;2022-09-01T15:22:00;0.80;;;0.80;;
673;SDS011;319;48.764;9.174;2022-09-01T15:24:27;0.80;;;0.80;;
673;SDS011;319;48.764;9.174;2022-09-01T15:26:54;0.80;;;0.80;;
673;SDS011;319;48.764;9.174;2022-09-01T15:29:21;0.80;;;0.80;;
673;SDS011;319;48.764;9.174;2022-09-01T15:31:49;0.90;;;0.90;;
673;SDS011;319;48.764;9.174;2022-09-01T15:34:16;0.80;;;0.80;;
673;SDS011;319;48.764;9.174;2022-09-01T15:36:43;0.80;;;0.80;;
673;SDS011;319;48.764;9.174;2022-09-01T15:39:10;0.80;;;0.80;;
673;SDS011;319;48.764;9.174;2022-09-01T15:41:37;0.80;;;0.80;;
673;SDS011;319;48.764;9.174;2022-09-01T15:44:05;0.80;;;0.80;;
673;SDS011;319;48.764;9.174;2022-09-01T15:46:33;0.80;;;0.80;;
673;SDS011;319;48.764;9.174;2022-09-01T15:49:04;0.90;;;0.90;;
673;SDS011;319;48.764;9.174;2022-09-01T15:51:33;0.80;;;0.80;;
673;SDS011;319;48.764;9.174;2022-09-01T15:54:01;0.80;;;0.80;;
673;SDS011;319;48.764;9.174;2022-09-01T15:56:31;0.80;;;0.80;;
673;SDS011;319;48.764;9.174;2022-09-01T15:58:58;0.80;;;0.80;;
673;SDS011;319;48.764;9.174;2022-09-01T16:01:26;0.80;;;0.80;;
673;SDS011;319;48.764;9.174;2022-09-01T16:03:55;0.90;;;0.90;;
673;SDS011;319;48.764;9.174;2022-09-01T16:06:26;0.90;;;0.90;;
673;SDS011;319;48.764;9.174;2022-09-01T16:08:53;0.90;;;0.90;;
673;SDS011;319;48.764;9.174;2022-09-01T16:11:21;0.80;;;0.80;;
673;SDS011;319;48.764;9.174;2022-09-01T16:13:50;0.80;;;0.80;;
673;SDS011;319;48.764;9.174;2022-09-01T16:16:24;0.90;;;0.90;;
673;SDS011;319;48.764;9.174;2022-09-01T16:19:00;0.90;;;0.90;;
673;SDS011;319;48.764;9.174;2022-09-01T16:21:34;0.90;;;0.90;;
673;SDS011;319;48.764;9.174;2022-09-01T16:24:14;0.80;;;0.80;;
673;SDS011;319;48.764;9.174;2022-09-01T16:26:42;0.80;;;0.80;;
673;SDS011;319;48.764;9.174;2022-09-01T16:29:14;0.80;;;0.80;;